Institutional Ownership

Institutional Ownership

Ownership > 100%

Ownership Information
Shares Outstanding
33,629,260
Institutional Ownership (%)
37.84
Insider Ownership (%)
25.55
Ownership Activity - Total Positions
Company Shares % Out Value ($) Reported Change
GRQ Consultants, Inc. 401K Plan 5,193,568 15.44 7,582,609 9/28/2018 1,063,345
Donald Smith & Co. Inc. 3,251,500 9.67 4,747,190 8/17/2018 (430)
Ruffer LLP 1,812,277 5.39 2,645,924 6/30/2018 72,673
Vanguard Group Inc. 720,326 2.14 1,051,676 6/30/2018 4,044
Cambridge Investment Research Advisors Inc. 559,040 1.66 816,198 6/30/2018 (14,238)
Atg Capital LLC 174,999 0.52 255,499 8/17/2018 124,999
MRM-Horizon Advisors LLC 133,817 0.40 195,373 6/30/2018 (2,721)
GRQ Consultants Inc. 121,500 0.36 177,390 9/28/2018 0
Geode Capital Management LLC 117,782 0.35 171,962 6/30/2018 0
OTP Alapkezelő Zrt. 90,079 0.27 131,515 12/31/2017 0
GRQ Consultants, Inc., Defined Benefit Pension Plan 89,148 0.27 130,156 9/28/2018 0
Susquehanna International Group LLP 73,634 0.22 107,506 6/30/2018 48,576
Horizon Kinetics LLC 69,842 0.21 101,969 6/30/2018 0
Wells Fargo & Co. 68,664 0.20 100,249 6/30/2018 3,464
BlackRock Inc. 68,580 0.20 100,127 6/30/2018 24,939
Bridgeway Capital Management Inc. 65,000 0.19 94,900 6/30/2018 0
Northern Trust Global Investments 54,313 0.16 79,297 6/30/2018 0
Renaissance Technologies LLC 48,400 0.14 70,664 6/30/2018 48,400
Amundi Asset Management SAS 27,364 0.08 39,951 6/30/2018 0
U.S. Bancorp Asset Management Inc. 19,981 0.06 29,172 6/30/2018 19,981
Displaying 1 to 20 (of 49)